Time;durP1;ratioP1;P1;durP2;ratioP2;P2;SDS_P1;SDS_P2;PMS_P1;PMS_P2;Temp;Humidity;BMP_temperature;BMP_pressure;BME280_temperature;BME280_humidity;BME280_pressure;Samples;Min_cycle;Max_cycle;Signal;HPM_P1;HPM_P2
2021/06/29 00:00:46;;;;;;;7.90;4.00;;;;;;;;;;4901990;29;20047;-84
2021/06/29 00:03:15;;;;;;;6.43;3.97;;;;;;;;;;4902081;29;20024;-81
2021/06/29 00:05:41;;;;;;;5.35;3.70;;;;;;;;;;4901656;29;20039;-82
2021/06/29 00:08:07;;;;;;;5.47;3.60;;;;;;;;;;4901988;29;20033;-84
2021/06/29 00:10:34;;;;;;;7.47;3.92;;;;;;;;;;4902003;29;20055;-84
2021/06/29 00:13:00;;;;;;;5.63;3.72;;;;;;;;;;4902007;29;20032;-83
2021/06/29 00:15:28;;;;;;;5.38;3.72;;;;;;;;;;4901792;29;20512;-83
2021/06/29 00:17:55;;;;;;;7.95;3.95;;;;;;;;;;4901756;29;20036;-83
2021/06/29 00:20:21;;;;;;;6.82;3.70;;;;;;;;;;4901731;29;20040;-82
2021/06/29 00:22:47;;;;;;;6.78;3.60;;;;;;;;;;4901764;29;20485;-84
2021/06/29 00:25:14;;;;;;;7.22;4.07;;;;;;;;;;4918565;29;20230;-85
2021/06/29 00:27:41;;;;;;;6.68;4.07;;;;;;;;;;4918676;29;20028;-84
2021/06/29 00:30:08;;;;;;;5.57;3.88;;;;;;;;;;4901643;29;20083;-84
2021/06/29 00:32:35;;;;;;;7.53;3.63;;;;;;;;;;4918552;29;20146;-84
2021/06/29 00:35:01;;;;;;;6.30;4.10;;;;;;;;;;4918536;29;20482;-84
2021/06/29 00:37:28;;;;;;;5.20;3.58;;;;;;;;;;4918791;29;20032;-81
2021/06/29 00:39:54;;;;;;;7.50;4.07;;;;;;;;;;4902497;29;20056;-84
2021/06/29 00:42:20;;;;;;;5.80;3.85;;;;;;;;;;4901352;29;20478;-84
2021/06/29 00:44:47;;;;;;;7.80;4.22;;;;;;;;;;4918929;29;20076;-84
2021/06/29 00:47:13;;;;;;;5.93;4.30;;;;;;;;;;4901275;29;20025;-83
2021/06/29 00:49:39;;;;;;;8.15;3.95;;;;;;;;;;4901161;29;20028;-84
2021/06/29 00:52:06;;;;;;;6.53;4.07;;;;;;;;;;4918201;29;20051;-83
2021/06/29 00:54:35;;;;;;;6.10;3.70;;;;;;;;;;4901273;29;20028;-84
2021/06/29 00:57:01;;;;;;;6.57;4.07;;;;;;;;;;4901073;29;20035;-84
2021/06/29 00:59:27;;;;;;;6.57;4.30;;;;;;;;;;4917949;29;20040;-84
2021/06/29 01:01:54;;;;;;;5.93;4.40;;;;;;;;;;4901033;29;20059;-85
2021/06/29 01:04:20;;;;;;;6.18;4.40;;;;;;;;;;4917969;29;20028;-84
2021/06/29 01:06:47;;;;;;;6.22;3.95;;;;;;;;;;4917165;29;20079;-83
2021/06/29 01:09:13;;;;;;;6.80;3.88;;;;;;;;;;4900869;29;20039;-84
2021/06/29 01:11:39;;;;;;;8.02;4.10;;;;;;;;;;4900940;29;20020;-83
2021/06/29 01:14:10;;;;;;;8.73;4.00;;;;;;;;;;4918026;29;20064;-83
2021/06/29 01:16:36;;;;;;;7.25;4.75;;;;;;;;;;4900697;29;20020;-84
2021/06/29 01:19:02;;;;;;;6.78;4.15;;;;;;;;;;4900789;29;20028;-84
2021/06/29 01:21:37;;;;;;;8.15;4.75;;;;;;;;;;4917750;29;20032;-83
2021/06/29 01:24:05;;;;;;;8.52;4.28;;;;;;;;;;4918143;29;20402;-84
2021/06/29 01:26:34;;;;;;;6.82;4.00;;;;;;;;;;4900678;29;20027;-83
2021/06/29 01:31:26;;;;;;;6.90;4.22;;;;;;;;;;4917592;29;20029;-84
2021/06/29 01:33:53;;;;;;;8.50;3.85;;;;;;;;;;4900630;29;20028;-85
2021/06/29 01:36:21;;;;;;;6.07;4.50;;;;;;;;;;4900644;29;20099;-84
2021/06/29 01:38:48;;;;;;;6.13;4.45;;;;;;;;;;4900467;29;20055;-84
2021/06/29 01:41:15;;;;;;;6.18;4.25;;;;;;;;;;4917248;29;20131;-84
2021/06/29 01:43:49;;;;;;;5.78;3.97;;;;;;;;;;4917503;29;20032;-85
2021/06/29 01:46:16;;;;;;;6.93;4.13;;;;;;;;;;4900678;29;20154;-84
2021/06/29 01:48:47;;;;;;;5.65;4.20;;;;;;;;;;4900626;29;20024;-84
2021/06/29 01:51:13;;;;;;;5.55;4.25;;;;;;;;;;4900355;29;20028;-84
2021/06/29 01:53:39;;;;;;;6.05;3.67;;;;;;;;;;4900579;29;20031;-84
2021/06/29 01:56:07;;;;;;;6.40;4.18;;;;;;;;;;4900349;29;20036;-84
2021/06/29 01:58:34;;;;;;;7.72;4.47;;;;;;;;;;4900507;29;20024;-84
2021/06/29 02:01:00;;;;;;;6.05;4.07;;;;;;;;;;4901494;29;20047;-84
2021/06/29 02:03:26;;;;;;;7.18;4.00;;;;;;;;;;4900645;29;20037;-84
2021/06/29 02:05:53;;;;;;;5.90;4.40;;;;;;;;;;4917553;29;20024;-84
2021/06/29 02:08:19;;;;;;;5.53;4.13;;;;;;;;;;4900347;29;20034;-84
2021/06/29 02:10:45;;;;;;;6.82;4.45;;;;;;;;;;4900353;29;20028;-84
2021/06/29 02:13:12;;;;;;;7.35;4.10;;;;;;;;;;4900261;29;20044;-85
2021/06/29 02:15:38;;;;;;;5.32;3.70;;;;;;;;;;4900152;29;20025;-84
2021/06/29 02:18:05;;;;;;;6.40;3.92;;;;;;;;;;4902084;29;20036;-84
2021/06/29 02:20:31;;;;;;;8.18;4.25;;;;;;;;;;4904134;29;20070;-83
2021/06/29 02:22:57;;;;;;;6.45;4.50;;;;;;;;;;4904126;29;20032;-84
2021/06/29 02:25:23;;;;;;;6.63;3.92;;;;;;;;;;4904035;29;20028;-84
2021/06/29 02:27:50;;;;;;;5.95;3.97;;;;;;;;;;4920880;29;20032;-84
2021/06/29 02:30:16;;;;;;;6.05;4.10;;;;;;;;;;4920840;29;20028;-84
2021/06/29 02:32:43;;;;;;;13.45;4.50;;;;;;;;;;4903812;29;20032;-84
2021/06/29 02:35:10;;;;;;;5.40;4.18;;;;;;;;;;4920835;29;20137;-84
2021/06/29 02:37:36;;;;;;;7.47;4.57;;;;;;;;;;4903708;29;20083;-84
2021/06/29 02:40:03;;;;;;;7.85;4.55;;;;;;;;;;4920303;29;20056;-84
2021/06/29 02:42:30;;;;;;;6.85;4.63;;;;;;;;;;4903525;29;20036;-84
2021/06/29 02:45:03;;;;;;;12.18;4.47;;;;;;;;;;4920595;29;20466;-84
2021/06/29 02:47:30;;;;;;;8.32;4.53;;;;;;;;;;4903588;29;20071;-85
2021/06/29 02:49:56;;;;;;;6.07;3.92;;;;;;;;;;4920427;29;20107;-85
2021/06/29 02:52:23;;;;;;;9.45;4.95;;;;;;;;;;4920593;29;20058;-85
2021/06/29 02:54:49;;;;;;;6.68;4.40;;;;;;;;;;4920571;29;20032;-84
2021/06/29 02:57:15;;;;;;;8.55;4.57;;;;;;;;;;4920281;29;20028;-85
2021/06/29 02:59:42;;;;;;;6.60;4.40;;;;;;;;;;4903493;29;20036;-84
2021/06/29 03:02:08;;;;;;;6.63;4.45;;;;;;;;;;4903218;29;20036;-85
2021/06/29 03:04:34;;;;;;;8.65;4.75;;;;;;;;;;4903284;29;20394;-84
2021/06/29 03:07:00;;;;;;;7.63;4.38;;;;;;;;;;4903278;29;20076;-84
2021/06/29 03:09:27;;;;;;;7.97;4.60;;;;;;;;;;4920116;29;20031;-85
2021/06/29 03:11:53;;;;;;;6.85;4.55;;;;;;;;;;4920054;29;20087;-84
2021/06/29 03:14:19;;;;;;;8.70;4.63;;;;;;;;;;4920020;29;20028;-84
2021/06/29 03:16:45;;;;;;;6.20;4.53;;;;;;;;;;4902960;29;20500;-85
2021/06/29 03:19:12;;;;;;;8.68;5.40;;;;;;;;;;4920288;29;20111;-85
2021/06/29 03:21:38;;;;;;;7.28;4.60;;;;;;;;;;4903354;29;20061;-82
2021/06/29 03:24:04;;;;;;;6.00;4.38;;;;;;;;;;4903338;29;20024;-84
2021/06/29 03:26:30;;;;;;;6.90;4.63;;;;;;;;;;4903631;29;20090;-84
2021/06/29 03:28:57;;;;;;;6.50;4.43;;;;;;;;;;4902790;29;20067;-84
2021/06/29 03:31:23;;;;;;;7.03;4.78;;;;;;;;;;4905030;29;20024;-84
2021/06/29 03:33:49;;;;;;;9.18;5.00;;;;;;;;;;4903231;29;20040;-84
2021/06/29 03:36:16;;;;;;;7.68;4.40;;;;;;;;;;4903199;29;20032;-85
2021/06/29 03:38:42;;;;;;;6.80;4.85;;;;;;;;;;4903348;29;20028;-84
2021/06/29 03:41:08;;;;;;;7.88;4.95;;;;;;;;;;4920070;29;20052;-84
2021/06/29 03:43:38;;;;;;;9.88;4.72;;;;;;;;;;4920561;29;20110;-84
2021/06/29 03:46:06;;;;;;;8.50;4.75;;;;;;;;;;4902727;29;20040;-85
2021/06/29 03:48:32;;;;;;;7.43;4.10;;;;;;;;;;4902867;29;20079;-83
2021/06/29 03:50:58;;;;;;;7.63;4.07;;;;;;;;;;4902576;29;20068;-84
2021/06/29 03:53:25;;;;;;;6.82;4.38;;;;;;;;;;4920476;29;20032;-85
2021/06/29 03:55:51;;;;;;;6.38;4.43;;;;;;;;;;4902791;29;20459;-84
2021/06/29 03:58:17;;;;;;;7.10;4.10;;;;;;;;;;4919434;29;20087;-82
2021/06/29 04:00:43;;;;;;;6.13;4.68;;;;;;;;;;4903210;29;20107;-82
2021/06/29 04:03:09;;;;;;;10.32;4.28;;;;;;;;;;4903868;29;20071;-83
2021/06/29 04:05:35;;;;;;;6.10;3.80;;;;;;;;;;4903382;29;20490;-82
2021/06/29 04:08:01;;;;;;;15.07;4.03;;;;;;;;;;4902349;29;20501;-83
2021/06/29 04:10:27;;;;;;;8.45;3.88;;;;;;;;;;4902355;29;20035;-83
2021/06/29 04:12:54;;;;;;;7.40;4.25;;;;;;;;;;4902217;29;20028;-84
2021/06/29 04:15:20;;;;;;;7.00;3.75;;;;;;;;;;4919828;29;20029;-83
2021/06/29 04:17:46;;;;;;;5.78;3.95;;;;;;;;;;4902030;29;20024;-84
2021/06/29 04:20:13;;;;;;;5.18;3.55;;;;;;;;;;4919133;29;20047;-83
2021/06/29 04:22:39;;;;;;;5.13;3.67;;;;;;;;;;4902513;29;20024;-84
2021/06/29 04:25:06;;;;;;;5.25;3.83;;;;;;;;;;4919415;29;20450;-84
2021/06/29 04:27:33;;;;;;;5.13;3.38;;;;;;;;;;4902745;29;20020;-83
2021/06/29 04:29:59;;;;;;;5.00;3.47;;;;;;;;;;4902677;29;20118;-83
2021/06/29 04:32:25;;;;;;;5.82;3.58;;;;;;;;;;4920050;29;20042;-85
2021/06/29 04:34:51;;;;;;;5.75;3.45;;;;;;;;;;4921611;29;20433;-84
2021/06/29 04:37:18;;;;;;;10.00;3.63;;;;;;;;;;4902493;29;20039;-82
2021/06/29 04:39:44;;;;;;;8.85;3.40;;;;;;;;;;4898958;29;20056;-86
2021/06/29 04:42:11;;;;;;;8.00;3.50;;;;;;;;;;4898339;29;20060;-84
2021/06/29 04:44:39;;;;;;;5.47;3.28;;;;;;;;;;4899795;29;20025;-84
2021/06/29 04:47:06;;;;;;;8.25;3.40;;;;;;;;;;4898144;29;20180;-83
2021/06/29 04:49:32;;;;;;;3.90;2.78;;;;;;;;;;4899453;29;20360;-84
2021/06/29 04:51:59;;;;;;;4.05;2.67;;;;;;;;;;4898100;29;20039;-85
2021/06/29 04:54:25;;;;;;;6.63;2.72;;;;;;;;;;4898130;29;20089;-84
2021/06/29 04:56:51;;;;;;;5.50;2.85;;;;;;;;;;4898050;29;20032;-82
2021/06/29 04:59:18;;;;;;;5.30;2.85;;;;;;;;;;4899013;29;20482;-82
2021/06/29 05:01:44;;;;;;;3.38;2.35;;;;;;;;;;4897839;29;20394;-83
2021/06/29 05:04:10;;;;;;;5.60;2.60;;;;;;;;;;4899626;29;20028;-83
2021/06/29 05:06:37;;;;;;;5.95;2.72;;;;;;;;;;4899080;29;20029;-83
2021/06/29 05:09:03;;;;;;;3.08;2.30;;;;;;;;;;4898991;29;20021;-83
2021/06/29 05:11:29;;;;;;;5.65;2.75;;;;;;;;;;4899394;29;20119;-83
2021/06/29 05:13:56;;;;;;;5.53;2.58;;;;;;;;;;4897692;29;20025;-83
2021/06/29 05:16:22;;;;;;;5.95;2.65;;;;;;;;;;4898832;29;20103;-83
2021/06/29 05:18:48;;;;;;;3.58;2.67;;;;;;;;;;4897722;29;20032;-83
2021/06/29 05:21:14;;;;;;;4.15;2.67;;;;;;;;;;4898196;29;20036;-83
2021/06/29 05:23:40;;;;;;;3.42;2.58;;;;;;;;;;4898842;29;20035;-82
2021/06/29 05:26:07;;;;;;;4.00;2.30;;;;;;;;;;4898845;29;20109;-82
2021/06/29 05:28:33;;;;;;;7.15;2.42;;;;;;;;;;4899229;29;20033;-82
2021/06/29 05:30:59;;;;;;;5.55;2.10;;;;;;;;;;4898960;29;20032;-83
2021/06/29 05:33:26;;;;;;;3.92;2.53;;;;;;;;;;4899344;29;20498;-82
2021/06/29 05:35:52;;;;;;;2.90;2.20;;;;;;;;;;4897828;29;20088;-84
2021/06/29 05:38:18;;;;;;;9.45;2.70;;;;;;;;;;4899014;29;20084;-83
2021/06/29 05:40:44;;;;;;;3.97;2.60;;;;;;;;;;4898036;29;20229;-83
2021/06/29 05:43:10;;;;;;;5.82;2.50;;;;;;;;;;4897281;29;20085;-82
2021/06/29 05:45:36;;;;;;;4.13;2.15;;;;;;;;;;4897864;29;20115;-84
2021/06/29 05:48:03;;;;;;;6.55;2.35;;;;;;;;;;4897369;29;20089;-83
2021/06/29 05:50:29;;;;;;;5.20;2.35;;;;;;;;;;4897280;29;20028;-82
2021/06/29 05:52:55;;;;;;;7.18;2.40;;;;;;;;;;4896788;29;20072;-82
2021/06/29 05:55:21;;;;;;;5.93;2.10;;;;;;;;;;4898427;29;20099;-81
2021/06/29 05:57:47;;;;;;;4.25;2.28;;;;;;;;;;4897149;29;20522;-83
2021/06/29 06:00:18;;;;;;;3.25;2.17;;;;;;;;;;4897060;29;20028;-82
2021/06/29 06:02:45;;;;;;;5.25;2.13;;;;;;;;;;4897103;29;20036;-83
2021/06/29 06:05:11;;;;;;;3.50;2.13;;;;;;;;;;4897127;29;20041;-82
2021/06/29 06:07:38;;;;;;;4.05;1.92;;;;;;;;;;4898259;29;20398;-83
2021/06/29 06:10:05;;;;;;;5.82;2.10;;;;;;;;;;4898239;29;20028;-83
2021/06/29 06:12:31;;;;;;;2.78;1.90;;;;;;;;;;4898181;29;20024;-83
2021/06/29 06:14:58;;;;;;;4.53;2.03;;;;;;;;;;4898241;29;20040;-84
2021/06/29 06:17:27;;;;;;;2.50;1.88;;;;;;;;;;4898689;29;20438;-83
2021/06/29 06:19:54;;;;;;;2.80;1.80;;;;;;;;;;4897392;29;20435;-83
2021/06/29 06:22:21;;;;;;;5.03;1.73;;;;;;;;;;4898662;29;20029;-85
2021/06/29 06:24:47;;;;;;;5.00;1.95;;;;;;;;;;4898680;29;20036;-84
2021/06/29 06:27:15;;;;;;;4.30;1.67;;;;;;;;;;4898147;29;20036;-85
2021/06/29 06:29:41;;;;;;;5.93;1.85;;;;;;;;;;4898588;29;20025;-83
2021/06/29 06:32:08;;;;;;;4.53;1.90;;;;;;;;;;4896780;29;20033;-82
2021/06/29 06:34:34;;;;;;;3.47;1.75;;;;;;;;;;4898020;29;20471;-84
2021/06/29 06:37:00;;;;;;;2.25;1.50;;;;;;;;;;4898427;29;20056;-84
2021/06/29 06:39:26;;;;;;;5.50;1.63;;;;;;;;;;4899440;29;20060;-85
2021/06/29 06:41:53;;;;;;;2.20;1.52;;;;;;;;;;4917423;29;20024;-84
2021/06/29 06:44:19;;;;;;;5.85;1.55;;;;;;;;;;4916821;29;20032;-84
2021/06/29 06:46:46;;;;;;;4.95;1.85;;;;;;;;;;4899835;29;20028;-82
2021/06/29 06:49:12;;;;;;;4.43;1.92;;;;;;;;;;4916726;29;20024;-81
2021/06/29 06:51:38;;;;;;;3.92;1.63;;;;;;;;;;4899868;29;20032;-88
2021/06/29 06:54:04;;;;;;;3.33;1.80;;;;;;;;;;4899784;29;20028;-86
2021/06/29 06:56:30;;;;;;;2.65;1.42;;;;;;;;;;4899725;29;20035;-82
2021/06/29 06:58:58;;;;;;;6.10;1.90;;;;;;;;;;4916657;29;20032;-82
2021/06/29 07:01:24;;;;;;;3.03;1.70;;;;;;;;;;4917080;29;20423;-82
2021/06/29 07:03:50;;;;;;;13.02;2.05;;;;;;;;;;4916924;29;20032;-82
2021/06/29 07:06:17;;;;;;;3.05;1.58;;;;;;;;;;4919708;29;20031;-82
2021/06/29 07:08:43;;;;;;;4.10;1.95;;;;;;;;;;4920052;29;20031;-82
2021/06/29 07:11:10;;;;;;;2.10;1.63;;;;;;;;;;4903033;29;20470;-82
2021/06/29 07:13:36;;;;;;;3.63;1.67;;;;;;;;;;4920434;29;20028;-82
2021/06/29 07:16:03;;;;;;;4.57;2.05;;;;;;;;;;4919879;29;20108;-82
2021/06/29 07:18:30;;;;;;;4.10;1.70;;;;;;;;;;4919828;29;20039;-82
2021/06/29 07:20:56;;;;;;;2.30;1.80;;;;;;;;;;4902691;29;20450;-82
2021/06/29 07:23:23;;;;;;;3.22;2.03;;;;;;;;;;4919699;29;20367;-83
2021/06/29 07:25:49;;;;;;;3.58;1.80;;;;;;;;;;4902735;29;20028;-82
2021/06/29 07:28:15;;;;;;;2.70;1.75;;;;;;;;;;4919660;29;20036;-82
2021/06/29 07:30:42;;;;;;;2.33;1.60;;;;;;;;;;4919596;29;20035;-82
2021/06/29 07:33:08;;;;;;;4.80;2.00;;;;;;;;;;4919566;29;20028;-82
2021/06/29 07:35:35;;;;;;;10.73;1.85;;;;;;;;;;4919555;29;20032;-82
2021/06/29 07:38:02;;;;;;;3.72;1.40;;;;;;;;;;4902702;29;20047;-82
2021/06/29 07:40:29;;;;;;;2.08;1.25;;;;;;;;;;4919191;29;20060;-82
2021/06/29 07:42:59;;;;;;;11.50;1.67;;;;;;;;;;4919877;29;20466;-82
2021/06/29 07:45:27;;;;;;;3.25;1.58;;;;;;;;;;4902369;29;20032;-82
2021/06/29 07:47:56;;;;;;;2.53;1.27;;;;;;;;;;4919325;29;20020;-82
2021/06/29 07:50:23;;;;;;;2.80;1.63;;;;;;;;;;4919810;29;20405;-83
2021/06/29 07:52:50;;;;;;;3.25;1.77;;;;;;;;;;4919775;29;20039;-82
2021/06/29 07:55:16;;;;;;;3.42;1.70;;;;;;;;;;4919188;29;20080;-82
2021/06/29 07:57:42;;;;;;;3.22;1.95;;;;;;;;;;4919189;29;20059;-83
2021/06/29 08:00:10;;;;;;;3.92;1.88;;;;;;;;;;4901989;29;20146;-82
2021/06/29 08:02:36;;;;;;;3.00;1.90;;;;;;;;;;4919055;29;20492;-82
2021/06/29 08:05:04;;;;;;;6.03;1.42;;;;;;;;;;4919270;29;20431;-82
2021/06/29 08:07:30;;;;;;;3.42;1.63;;;;;;;;;;4918977;29;20142;-82
2021/06/29 08:09:57;;;;;;;3.00;1.45;;;;;;;;;;4918879;29;20043;-82
2021/06/29 08:12:24;;;;;;;2.95;1.60;;;;;;;;;;4918905;29;20028;-83
2021/06/29 08:14:50;;;;;;;2.85;1.60;;;;;;;;;;4919293;29;20086;-83
2021/06/29 08:17:16;;;;;;;5.25;1.80;;;;;;;;;;4918541;29;20028;-83
2021/06/29 08:19:43;;;;;;;3.30;1.70;;;;;;;;;;4919271;29;20035;-83
2021/06/29 08:22:10;;;;;;;2.35;1.33;;;;;;;;;;4919230;29;20024;-83
2021/06/29 08:24:36;;;;;;;4.05;1.52;;;;;;;;;;4918653;29;20044;-82
2021/06/29 08:27:03;;;;;;;6.03;1.75;;;;;;;;;;4901610;29;20031;-83
2021/06/29 08:29:29;;;;;;;3.80;2.20;;;;;;;;;;4918499;29;20087;-82
2021/06/29 08:31:55;;;;;;;3.05;1.70;;;;;;;;;;4919010;29;20036;-82
2021/06/29 08:34:21;;;;;;;3.33;1.90;;;;;;;;;;4918221;29;20028;-84
2021/06/29 08:36:47;;;;;;;3.15;1.98;;;;;;;;;;4901378;29;20541;-90
2021/06/29 08:39:15;;;;;;;3.05;1.67;;;;;;;;;;4901544;29;20024;-83
2021/06/29 08:41:45;;;;;;;4.28;1.85;;;;;;;;;;4918384;29;20139;-84
2021/06/29 08:44:11;;;;;;;4.53;1.67;;;;;;;;;;4901463;29;20495;-90
2021/06/29 08:46:37;;;;;;;3.13;2.00;;;;;;;;;;4901412;29;20039;-87
2021/06/29 08:49:04;;;;;;;2.65;1.55;;;;;;;;;;4918300;29;20103;-82
2021/06/29 08:51:30;;;;;;;2.60;1.63;;;;;;;;;;4918384;29;20040;-83
2021/06/29 08:53:56;;;;;;;2.78;1.70;;;;;;;;;;4901182;29;20084;-83
2021/06/29 08:56:23;;;;;;;4.03;1.70;;;;;;;;;;4901124;29;20146;-84
2021/06/29 08:58:49;;;;;;;3.95;1.70;;;;;;;;;;4918056;29;20545;-83
2021/06/29 09:01:15;;;;;;;4.90;1.77;;;;;;;;;;4901029;29;20491;-84
2021/06/29 09:03:42;;;;;;;6.63;1.70;;;;;;;;;;4901039;29;20046;-84
2021/06/29 09:06:09;;;;;;;3.00;1.85;;;;;;;;;;4900912;29;20126;-84
2021/06/29 09:08:42;;;;;;;2.90;1.67;;;;;;;;;;4917882;29;20099;-84
2021/06/29 09:11:17;;;;;;;2.50;1.80;;;;;;;;;;4901037;29;20496;-84
2021/06/29 09:14:01;;;;;;;2.15;1.60;;;;;;;;;;4900889;29;20032;-83
2021/06/29 09:16:27;;;;;;;2.53;1.63;;;;;;;;;;4917770;29;20481;-84
2021/06/29 09:18:53;;;;;;;2.22;1.65;;;;;;;;;;4900781;29;20462;-83
2021/06/29 09:21:20;;;;;;;5.20;1.73;;;;;;;;;;4900719;29;20020;-84
2021/06/29 09:23:50;;;;;;;3.25;1.85;;;;;;;;;;4900675;29;20115;-84
2021/06/29 09:26:24;;;;;;;4.03;2.20;;;;;;;;;;4900666;29;20020;-83
2021/06/29 09:28:55;;;;;;;4.80;2.22;;;;;;;;;;4900016;29;20032;-83
2021/06/29 09:31:27;;;;;;;3.40;1.80;;;;;;;;;;4917462;29;20519;-83
2021/06/29 09:33:55;;;;;;;4.30;1.80;;;;;;;;;;4900537;29;20481;-84
2021/06/29 09:36:42;;;;;;;4.20;1.60;;;;;;;;;;4900504;29;20533;-83
2021/06/29 09:39:12;;;;;;;5.93;2.22;;;;;;;;;;4900404;29;20032;-83
2021/06/29 09:41:39;;;;;;;7.43;2.60;;;;;;;;;;4917252;29;20134;-83
2021/06/29 09:44:06;;;;;;;5.70;2.10;;;;;;;;;;4917353;29;20036;-83
2021/06/29 09:46:33;;;;;;;2.20;1.80;;;;;;;;;;4900378;29;20055;-83
2021/06/29 09:49:19;;;;;;;4.05;1.80;;;;;;;;;;4917318;29;20035;-83
2021/06/29 09:51:50;;;;;;;2.85;1.67;;;;;;;;;;4900234;29;20478;-83
2021/06/29 09:54:17;;;;;;;8.85;2.10;;;;;;;;;;4917426;29;20024;-83
2021/06/29 09:56:46;;;;;;;3.10;2.00;;;;;;;;;;4900265;29;20494;-83
2021/06/29 09:59:17;;;;;;;4.78;1.95;;;;;;;;;;4917291;29;20028;-83
2021/06/29 10:01:44;;;;;;;2.83;2.13;;;;;;;;;;4900190;29;20512;-84
2021/06/29 10:04:11;;;;;;;3.00;1.90;;;;;;;;;;4917125;29;20087;-83
2021/06/29 10:06:38;;;;;;;3.20;2.10;;;;;;;;;;4917151;29;20088;-83
2021/06/29 10:09:10;;;;;;;2.58;1.88;;;;;;;;;;4900160;29;20066;-83
2021/06/29 10:11:41;;;;;;;4.82;2.17;;;;;;;;;;4900108;29;20036;-83
2021/06/29 10:14:09;;;;;;;3.88;1.95;;;;;;;;;;4900269;29;20107;-83
2021/06/29 10:16:39;;;;;;;3.05;2.10;;;;;;;;;;4916992;29;20038;-82
2021/06/29 10:21:36;;;;;;;2.90;1.90;;;;;;;;;;4916983;29;20029;-83
2021/06/29 10:24:04;;;;;;;3.10;1.85;;;;;;;;;;4900064;29;20490;-83
2021/06/29 10:26:32;;;;;;;3.75;2.05;;;;;;;;;;4899904;29;20115;-83
2021/06/29 10:28:59;;;;;;;5.70;2.58;;;;;;;;;;4916995;29;20039;-83
2021/06/29 10:31:25;;;;;;;9.02;2.47;;;;;;;;;;4917483;29;20046;-83
2021/06/29 10:33:52;;;;;;;3.67;2.10;;;;;;;;;;4916920;29;20063;-82
2021/06/29 10:36:19;;;;;;;9.30;2.60;;;;;;;;;;4899904;29;20036;-81
2021/06/29 10:38:46;;;;;;;4.75;2.58;;;;;;;;;;4900931;29;20035;-82
2021/06/29 10:41:12;;;;;;;3.05;2.58;;;;;;;;;;4920473;29;20051;-82
2021/06/29 10:43:41;;;;;;;3.83;2.30;;;;;;;;;;4903528;29;20035;-82
2021/06/29 10:46:13;;;;;;;4.22;2.90;;;;;;;;;;4903444;29;20619;-82
2021/06/29 10:48:41;;;;;;;3.60;2.78;;;;;;;;;;4903437;29;20024;-82
2021/06/29 10:51:11;;;;;;;8.10;3.00;;;;;;;;;;4903162;29;20040;-82
2021/06/29 10:53:42;;;;;;;7.63;3.40;;;;;;;;;;4903321;29;20020;-82
2021/06/29 10:56:20;;;;;;;4.57;3.17;;;;;;;;;;4920798;29;20029;-82
2021/06/29 10:58:48;;;;;;;8.55;3.15;;;;;;;;;;4903284;29;20062;-82
2021/06/29 11:01:19;;;;;;;5.55;3.00;;;;;;;;;;4920179;29;20036;-83
2021/06/29 11:03:46;;;;;;;3.65;2.90;;;;;;;;;;4921002;29;20370;-82
2021/06/29 11:06:13;;;;;;;4.10;2.97;;;;;;;;;;4903097;29;20036;-82
2021/06/29 11:08:46;;;;;;;10.18;3.25;;;;;;;;;;4903058;29;20067;-81
2021/06/29 11:11:13;;;;;;;4.13;2.63;;;;;;;;;;4902859;29;20040;-81
2021/06/29 11:13:41;;;;;;;5.80;3.22;;;;;;;;;;4920501;29;20024;-81
2021/06/29 11:16:07;;;;;;;8.02;3.25;;;;;;;;;;4902956;29;20036;-82
2021/06/29 11:18:34;;;;;;;5.45;3.30;;;;;;;;;;4903600;29;20024;-82
2021/06/29 11:21:03;;;;;;;5.15;3.30;;;;;;;;;;4919882;29;20039;-81
2021/06/29 11:23:31;;;;;;;5.43;3.40;;;;;;;;;;4902739;29;20115;-81
2021/06/29 11:26:00;;;;;;;6.25;3.30;;;;;;;;;;4902705;29;20039;-82
2021/06/29 11:28:34;;;;;;;6.63;3.22;;;;;;;;;;4902708;29;20481;-82
2021/06/29 11:31:01;;;;;;;8.55;2.70;;;;;;;;;;4902607;29;20040;-81
2021/06/29 11:33:39;;;;;;;4.25;2.92;;;;;;;;;;4902699;29;20039;-81
2021/06/29 11:36:26;;;;;;;5.43;3.40;;;;;;;;;;4902594;29;20047;-82
2021/06/29 11:38:57;;;;;;;5.22;3.20;;;;;;;;;;4902453;29;20031;-82
2021/06/29 11:41:26;;;;;;;7.55;3.25;;;;;;;;;;4919317;29;20071;-82
2021/06/29 11:44:12;;;;;;;6.20;3.70;;;;;;;;;;4902393;29;20374;-82
2021/06/29 11:46:59;;;;;;;7.63;3.70;;;;;;;;;;4892687;29;20088;-82
2021/06/29 11:49:27;;;;;;;5.95;3.97;;;;;;;;;;4902238;29;20401;-82
2021/06/29 11:52:02;;;;;;;6.88;3.30;;;;;;;;;;4918486;29;20108;-82
2021/06/29 11:54:51;;;;;;;7.88;3.40;;;;;;;;;;4902312;29;20035;-82
2021/06/29 11:57:20;;;;;;;7.38;3.70;;;;;;;;;;4894834;29;20508;-82
2021/06/29 11:59:47;;;;;;;5.80;3.63;;;;;;;;;;4902203;29;20032;-83
2021/06/29 12:02:16;;;;;;;5.10;3.42;;;;;;;;;;4902231;29;20477;-79
2021/06/29 12:05:00;;;;;;;6.30;3.92;;;;;;;;;;4919550;29;20474;-79
2021/06/29 12:07:30;;;;;;;7.88;4.00;;;;;;;;;;4902234;29;20075;-81
2021/06/29 12:09:57;;;;;;;4.57;3.58;;;;;;;;;;4901923;29;20028;-83
2021/06/29 12:12:25;;;;;;;8.85;3.72;;;;;;;;;;4901901;29;20032;-83
2021/06/29 12:15:06;;;;;;;8.85;3.67;;;;;;;;;;4919407;29;20027;-83
2021/06/29 12:17:33;;;;;;;5.68;3.22;;;;;;;;;;4901861;29;20379;-83
2021/06/29 12:20:04;;;;;;;5.20;3.25;;;;;;;;;;4901833;29;20048;-83
2021/06/29 12:22:31;;;;;;;5.32;3.53;;;;;;;;;;4901891;29;20367;-82
2021/06/29 12:24:58;;;;;;;4.00;3.05;;;;;;;;;;4918820;29;20037;-81
2021/06/29 12:27:24;;;;;;;4.35;2.85;;;;;;;;;;4901656;29;20076;-82
2021/06/29 12:29:50;;;;;;;4.90;3.30;;;;;;;;;;4901753;29;20490;-83
2021/06/29 12:32:18;;;;;;;4.10;3.20;;;;;;;;;;4901763;29;20107;-81
2021/06/29 12:34:45;;;;;;;4.25;3.22;;;;;;;;;;4903124;29;20524;-83
2021/06/29 12:37:11;;;;;;;6.50;2.63;;;;;;;;;;4902655;29;20025;-83
2021/06/29 12:39:38;;;;;;;6.03;2.70;;;;;;;;;;4901240;29;20071;-82
2021/06/29 12:42:08;;;;;;;3.85;2.72;;;;;;;;;;4901038;29;20036;-82
2021/06/29 12:44:34;;;;;;;6.63;2.90;;;;;;;;;;4917850;29;20095;-82
2021/06/29 12:47:00;;;;;;;5.13;2.67;;;;;;;;;;4900658;29;20028;-81
2021/06/29 12:49:27;;;;;;;4.22;2.80;;;;;;;;;;4901190;29;20024;-82
2021/06/29 12:51:56;;;;;;;4.95;3.03;;;;;;;;;;4901935;29;20047;-81
2021/06/29 12:54:24;;;;;;;6.38;2.38;;;;;;;;;;4901318;29;20516;-81
2021/06/29 12:56:51;;;;;;;4.03;2.95;;;;;;;;;;4900893;29;20028;-81
2021/06/29 12:59:29;;;;;;;4.20;2.80;;;;;;;;;;4901029;29;20382;-82
2021/06/29 13:01:59;;;;;;;5.10;2.40;;;;;;;;;;4901004;29;20107;-81
2021/06/29 13:04:27;;;;;;;4.63;2.30;;;;;;;;;;4903021;29;20035;-81
2021/06/29 13:07:06;;;;;;;3.58;2.70;;;;;;;;;;4902097;29;20032;-82
2021/06/29 13:09:39;;;;;;;5.70;2.40;;;;;;;;;;4918769;29;20103;-81
2021/06/29 13:12:07;;;;;;;4.95;2.70;;;;;;;;;;4901093;29;20044;-81
2021/06/29 13:14:33;;;;;;;3.55;2.60;;;;;;;;;;4918473;29;20099;-83
2021/06/29 13:17:04;;;;;;;5.75;2.95;;;;;;;;;;4901713;29;20130;-83
2021/06/29 13:19:31;;;;;;;4.60;2.65;;;;;;;;;;4918521;29;20175;-82
2021/06/29 13:22:00;;;;;;;3.22;2.35;;;;;;;;;;4900903;29;20078;-81
2021/06/29 13:24:26;;;;;;;3.92;2.67;;;;;;;;;;4901145;29;20031;-81
2021/06/29 13:26:52;;;;;;;5.53;2.58;;;;;;;;;;4901204;29;20119;-80
2021/06/29 13:29:23;;;;;;;6.57;2.97;;;;;;;;;;4917974;29;20036;-82
2021/06/29 13:31:49;;;;;;;8.50;3.30;;;;;;;;;;4900942;29;20040;-82
2021/06/29 13:34:18;;;;;;;4.28;2.92;;;;;;;;;;4901180;29;20055;-80
2021/06/29 13:36:45;;;;;;;3.58;2.50;;;;;;;;;;4917820;29;20032;-80
2021/06/29 13:39:11;;;;;;;6.45;2.80;;;;;;;;;;4918100;29;20028;-81
2021/06/29 13:41:39;;;;;;;5.25;2.78;;;;;;;;;;4917516;29;20173;-81
2021/06/29 13:44:15;;;;;;;5.50;2.75;;;;;;;;;;4901301;29;20069;-83
2021/06/29 13:46:42;;;;;;;4.45;2.80;;;;;;;;;;4900560;29;20036;-82
2021/06/29 13:49:15;;;;;;;5.13;2.80;;;;;;;;;;4917353;29;20099;-80
2021/06/29 13:51:41;;;;;;;4.47;2.80;;;;;;;;;;4917313;29;20375;-82
2021/06/29 13:54:14;;;;;;;3.85;2.92;;;;;;;;;;4900307;29;20024;-81
2021/06/29 13:56:41;;;;;;;3.95;2.92;;;;;;;;;;4917255;29;20486;-80
2021/06/29 13:59:07;;;;;;;8.02;3.20;;;;;;;;;;4917203;29;20020;-82
2021/06/29 14:01:34;;;;;;;3.80;2.72;;;;;;;;;;4900202;29;20058;-81
2021/06/29 14:04:05;;;;;;;6.40;2.55;;;;;;;;;;4900145;29;20080;-81
2021/06/29 14:06:31;;;;;;;3.72;2.60;;;;;;;;;;4900151;29;20028;-80
2021/06/29 14:09:11;;;;;;;4.85;3.17;;;;;;;;;;4917125;29;20039;-82
2021/06/29 14:11:38;;;;;;;5.22;2.80;;;;;;;;;;4900042;29;20044;-81
2021/06/29 14:14:04;;;;;;;4.07;2.58;;;;;;;;;;4918692;29;20501;-82
2021/06/29 14:16:31;;;;;;;8.40;3.08;;;;;;;;;;4904439;29;20052;-80
2021/06/29 14:18:57;;;;;;;4.35;2.55;;;;;;;;;;4904041;29;20028;-80
2021/06/29 14:21:27;;;;;;;5.10;2.53;;;;;;;;;;4921641;29;20028;-80
2021/06/29 14:23:54;;;;;;;3.67;2.78;;;;;;;;;;4921086;29;20032;-82
2021/06/29 14:26:21;;;;;;;3.85;2.50;;;;;;;;;;4920850;29;20039;-81
2021/06/29 14:28:48;;;;;;;7.22;2.80;;;;;;;;;;4903938;29;20032;-83
2021/06/29 14:31:14;;;;;;;13.82;3.28;;;;;;;;;;4920684;29;20040;-81
2021/06/29 14:33:41;;;;;;;4.85;3.28;;;;;;;;;;4920718;29;20097;-78
2021/06/29 14:36:10;;;;;;;5.55;3.35;;;;;;;;;;4920766;29;20088;-82
2021/06/29 14:38:36;;;;;;;3.65;2.85;;;;;;;;;;4903958;29;20114;-80
2021/06/29 14:41:03;;;;;;;5.13;3.40;;;;;;;;;;4920368;29;20087;-83
2021/06/29 14:43:29;;;;;;;4.20;2.95;;;;;;;;;;4903633;29;20064;-82
2021/06/29 14:45:55;;;;;;;5.32;3.05;;;;;;;;;;4920554;29;20393;-79
2021/06/29 14:48:21;;;;;;;4.18;3.13;;;;;;;;;;4920927;29;20036;-80
2021/06/29 14:50:48;;;;;;;6.75;3.03;;;;;;;;;;4921108;29;20040;-82